Time;durP1;ratioP1;P1;durP2;ratioP2;P2;SDS_P1;SDS_P2;PMS_P1;PMS_P2;Temp;Humidity;BMP_temperature;BMP_pressure;BME280_temperature;BME280_humidity;BME280_pressure;Samples;Min_cycle;Max_cycle;Signal;HPM_P1;HPM_P2
2022/07/14 00:00:09;;;;;;;6.00;4.35;;;17.40;99.90;;;;;;5018068;28;20112;-80
2022/07/14 00:02:35;;;;;;;8.27;4.57;;;17.40;99.90;;;;;;4985050;28;20124;-80
2022/07/14 00:05:00;;;;;;;6.15;4.78;;;17.50;99.90;;;;;;5015608;28;20127;-80
2022/07/14 00:07:27;;;;;;;5.05;4.32;;;17.50;99.90;;;;;;5021211;28;20518;-80
2022/07/14 00:09:53;;;;;;;5.65;4.07;;;17.50;99.90;;;;;;5015815;28;20034;-80
2022/07/14 00:12:18;;;;;;;8.57;4.25;;;17.40;99.90;;;;;;4998152;28;20030;-80
2022/07/14 00:14:44;;;;;;;5.43;4.40;;;17.40;99.90;;;;;;5016662;28;20037;-80
2022/07/14 00:17:10;;;;;;;7.63;4.65;;;17.30;99.90;;;;;;5002934;28;20049;-80
2022/07/14 00:19:35;;;;;;;6.68;4.35;;;17.30;99.90;;;;;;5020414;28;20122;-80
2022/07/14 00:22:01;;;;;;;7.57;4.65;;;17.20;99.90;;;;;;5022824;28;20064;-80
2022/07/14 00:24:27;;;;;;;5.60;3.95;;;17.20;99.90;;;;;;5002505;28;20037;-80
2022/07/14 00:26:53;;;;;;;8.32;4.32;;;17.10;99.90;;;;;;5008419;28;20029;-81
2022/07/14 00:29:19;;;;;;;6.07;4.05;;;17.10;99.90;;;;;;5022161;28;20123;-80
2022/07/14 00:31:44;;;;;;;7.25;4.30;;;17.00;99.90;;;;;;5016303;28;20183;-80
2022/07/14 00:34:10;;;;;;;6.45;4.35;;;16.90;99.90;;;;;;5003914;28;20068;-81
2022/07/14 00:36:36;;;;;;;7.75;5.00;;;16.90;99.90;;;;;;5020034;28;20488;-80
2022/07/14 00:39:01;;;;;;;8.63;4.80;;;16.90;99.90;;;;;;5022967;28;20040;-80
2022/07/14 00:41:27;;;;;;;7.03;5.43;;;16.80;99.90;;;;;;5018465;28;20072;-80
2022/07/14 00:43:53;;;;;;;7.72;4.70;;;16.70;99.90;;;;;;5019122;28;20413;-80
2022/07/14 00:46:18;;;;;;;6.97;5.28;;;16.70;99.90;;;;;;5003916;28;20401;-80
2022/07/14 00:48:44;;;;;;;8.95;4.70;;;16.70;99.90;;;;;;4667020;28;10000462;-80
2022/07/14 00:51:10;;;;;;;6.85;4.80;;;16.60;99.90;;;;;;4994339;28;20118;-80
2022/07/14 00:53:35;;;;;;;6.90;5.10;;;16.60;99.90;;;;;;4997326;28;20037;-80
2022/07/14 00:56:01;;;;;;;6.13;5.32;;;16.60;99.90;;;;;;5002247;28;20633;-80
2022/07/14 00:58:27;;;;;;;8.57;5.78;;;16.50;99.90;;;;;;5030933;28;20036;-80
2022/07/14 01:00:52;;;;;;;10.32;5.05;;;16.50;99.90;;;;;;5005685;28;20045;-80
2022/07/14 01:03:18;;;;;;;6.00;4.90;;;16.50;99.90;;;;;;5003600;28;21020;-80
2022/07/14 01:05:44;;;;;;;7.97;5.28;;;16.40;99.90;;;;;;4995169;28;20386;-80
2022/07/14 01:08:10;;;;;;;8.52;5.63;;;16.40;99.90;;;;;;5014446;28;20051;-80
2022/07/14 01:10:36;;;;;;;8.50;5.63;;;16.40;99.90;;;;;;5020151;28;20033;-80
2022/07/14 01:13:04;;;;;;;7.50;5.95;;;16.30;99.90;;;;;;5001714;28;20435;-80
2022/07/14 01:15:30;;;;;;;7.85;6.13;;;16.30;99.90;;;;;;5001744;28;20404;-80
2022/07/14 01:17:56;;;;;;;8.32;6.00;;;16.20;99.90;;;;;;5001460;28;20026;-80
2022/07/14 01:20:22;;;;;;;9.88;6.18;;;16.20;99.90;;;;;;4997725;28;20551;-81
2022/07/14 01:22:48;;;;;;;11.13;6.47;;;16.20;99.90;;;;;;5000834;28;20128;-80
2022/07/14 01:25:15;;;;;;;10.35;8.05;;;16.10;99.90;;;;;;4998722;28;20279;-80
2022/07/14 01:27:41;;;;;;;15.48;8.10;;;16.20;99.90;;;;;;5019703;28;20030;-80
2022/07/14 01:30:08;;;;;;;14.48;7.57;;;16.10;99.90;;;;;;5001863;28;20044;-80
2022/07/14 01:32:34;;;;;;;12.70;7.32;;;16.10;99.90;;;;;;5006759;28;20482;-80
2022/07/14 01:35:00;;;;;;;14.15;7.25;;;16.10;99.90;;;;;;5002654;28;20052;-81
2022/07/14 01:37:26;;;;;;;14.55;8.93;;;16.00;99.90;;;;;;5000162;28;20033;-80
2022/07/14 01:39:52;;;;;;;15.23;8.00;;;16.00;99.90;;;;;;4991440;28;20141;-80
2022/07/14 01:42:18;;;;;;;15.05;7.82;;;16.00;99.90;;;;;;4984081;28;20104;-81
2022/07/14 01:44:43;;;;;;;17.70;9.48;;;16.00;99.90;;;;;;5005053;28;20481;-80
2022/07/14 01:47:09;;;;;;;13.23;8.30;;;15.90;99.90;;;;;;5000053;28;20151;-80
2022/07/14 01:49:36;;;;;;;14.10;8.65;;;15.90;99.90;;;;;;5006586;28;20111;-80
2022/07/14 01:52:02;;;;;;;9.68;8.07;;;15.90;99.90;;;;;;4998758;28;20061;-80
2022/07/14 01:54:29;;;;;;;14.30;8.23;;;15.80;99.90;;;;;;5009487;28;20039;-80
2022/07/14 01:56:55;;;;;;;14.55;9.27;;;15.80;99.90;;;;;;5000485;28;20521;-80
2022/07/14 01:59:21;;;;;;;16.05;8.73;;;15.70;99.90;;;;;;5003804;28;20120;-80
2022/07/14 02:01:47;;;;;;;15.52;8.80;;;15.60;99.90;;;;;;5018241;28;20683;-80
2022/07/14 02:04:15;;;;;;;16.48;9.23;;;15.60;99.90;;;;;;5010085;28;20064;-80
2022/07/14 02:06:50;;;;;;;16.38;8.80;;;15.50;99.90;;;;;;5018717;28;20475;-80
2022/07/14 02:09:16;;;;;;;14.80;9.00;;;15.50;99.90;;;;;;5015275;28;20036;-81
2022/07/14 02:14:30;;;;;;;16.63;10.25;;;15.40;99.90;;;;;;5020847;28;20051;-80
2022/07/14 02:16:55;;;;;;;16.88;9.27;;;15.40;99.90;;;;;;5026134;28;20090;-80
2022/07/14 02:19:23;;;;;;;12.50;9.10;;;15.40;99.90;;;;;;5000031;28;20029;-80
2022/07/14 02:21:51;;;;;;;12.07;8.70;;;15.30;99.90;;;;;;5002340;28;20033;-80
2022/07/14 02:24:18;;;;;;;12.48;8.90;;;15.30;99.90;;;;;;5013046;28;20044;-80
2022/07/14 02:26:44;;;;;;;13.75;9.10;;;15.30;99.90;;;;;;4998339;28;20441;-80
2022/07/14 02:29:10;;;;;;;13.00;9.98;;;15.20;99.90;;;;;;5031729;28;20044;-81
2022/07/14 02:31:36;;;;;;;14.52;10.02;;;15.20;99.90;;;;;;5013897;28;20400;-80
2022/07/14 02:34:02;;;;;;;19.58;10.65;;;15.20;99.90;;;;;;4999410;28;20542;-80
2022/07/14 02:36:28;;;;;;;18.13;10.50;;;15.10;99.90;;;;;;4998509;28;20033;-80
2022/07/14 02:38:54;;;;;;;18.52;10.93;;;15.10;99.90;;;;;;5007689;28;20029;-80
2022/07/14 02:41:20;;;;;;;15.65;10.23;;;15.00;99.90;;;;;;4995705;28;20504;-79
2022/07/14 02:43:46;;;;;;;19.40;10.75;;;15.00;99.90;;;;;;5008349;28;20033;-80
2022/07/14 02:46:12;;;;;;;15.45;11.85;;;14.90;99.90;;;;;;4999272;28;20425;-80
2022/07/14 02:48:38;;;;;;;18.80;11.98;;;14.90;99.90;;;;;;5026406;28;21432;-80
2022/07/14 02:51:06;;;;;;;13.88;10.75;;;14.90;99.90;;;;;;5013167;28;20034;-80
2022/07/14 02:53:34;;;;;;;16.80;10.98;;;14.90;99.90;;;;;;4999063;28;20029;-80
2022/07/14 02:56:00;;;;;;;13.98;10.85;;;14.80;99.90;;;;;;4998116;28;20075;-80
2022/07/14 02:58:26;;;;;;;15.38;10.52;;;14.80;99.90;;;;;;5018724;28;20040;-80
2022/07/14 03:00:52;;;;;;;14.73;10.93;;;14.70;99.90;;;;;;5015726;28;20033;-80
2022/07/14 03:03:18;;;;;;;18.55;11.43;;;14.70;99.90;;;;;;4994587;28;20052;-80
2022/07/14 03:05:44;;;;;;;21.83;11.38;;;14.70;99.90;;;;;;4999611;28;20045;-80
2022/07/14 03:08:10;;;;;;;19.35;12.30;;;14.70;99.90;;;;;;5019036;28;20061;-80
2022/07/14 03:10:36;;;;;;;20.27;11.82;;;14.60;99.90;;;;;;5001796;28;20061;-80
2022/07/14 03:13:02;;;;;;;17.75;12.18;;;14.60;99.90;;;;;;5013198;28;20071;-80
2022/07/14 03:15:28;;;;;;;18.30;11.63;;;14.60;99.90;;;;;;5020318;28;20090;-80
2022/07/14 03:17:53;;;;;;;17.40;12.15;;;14.60;99.90;;;;;;5018887;28;20556;-80
2022/07/14 03:20:19;;;;;;;21.77;11.57;;;14.60;99.90;;;;;;5008533;28;20042;-80
2022/07/14 03:22:45;;;;;;;18.38;12.05;;;14.50;99.90;;;;;;5018484;28;20029;-80
2022/07/14 03:25:11;;;;;;;16.85;11.55;;;14.50;99.90;;;;;;4994449;28;20042;-81
2022/07/14 03:27:38;;;;;;;20.75;11.75;;;14.50;99.90;;;;;;4998032;28;20025;-80
2022/07/14 03:30:05;;;;;;;22.38;12.60;;;14.50;99.90;;;;;;5001499;28;20092;-80
2022/07/14 03:32:31;;;;;;;19.58;12.15;;;14.50;99.90;;;;;;5018130;28;20663;-80
2022/07/14 03:34:58;;;;;;;23.98;13.73;;;14.40;99.90;;;;;;4998247;28;20088;-80
2022/07/14 03:37:24;;;;;;;20.83;12.75;;;14.40;99.90;;;;;;5014296;28;20180;-79
2022/07/14 03:39:49;;;;;;;25.35;14.05;;;14.40;99.90;;;;;;5018171;28;20086;-81
2022/07/14 03:42:15;;;;;;;21.80;14.07;;;14.40;99.90;;;;;;5019046;28;20524;-80
2022/07/14 03:44:42;;;;;;;26.20;14.00;;;14.40;99.90;;;;;;5010361;28;20599;-81
2022/07/14 03:47:08;;;;;;;25.38;15.00;;;14.40;99.90;;;;;;5019034;28;20701;-80
2022/07/14 03:49:34;;;;;;;26.10;14.75;;;14.40;99.90;;;;;;5015652;28;20165;-80
2022/07/14 03:52:00;;;;;;;23.98;15.35;;;14.40;99.90;;;;;;5013603;28;20032;-79
2022/07/14 03:54:26;;;;;;;23.38;15.48;;;14.40;99.90;;;;;;5001223;28;20033;-80
2022/07/14 03:56:52;;;;;;;19.95;14.65;;;14.40;99.90;;;;;;5016750;28;20084;-80
2022/07/14 03:59:18;;;;;;;24.08;14.82;;;14.40;99.90;;;;;;4998064;28;20195;-80
2022/07/14 04:01:43;;;;;;;24.63;14.75;;;14.30;99.90;;;;;;5014700;28;20125;-81
2022/07/14 04:04:09;;;;;;;23.40;15.07;;;14.40;99.90;;;;;;4999901;28;20037;-81
2022/07/14 04:06:35;;;;;;;23.92;16.13;;;14.30;99.90;;;;;;4998797;28;20041;-80
2022/07/14 04:09:01;;;;;;;26.80;15.55;;;14.30;99.90;;;;;;5003312;28;20029;-80
2022/07/14 04:11:27;;;;;;;22.23;14.32;;;14.30;99.90;;;;;;5027053;28;20033;-80
2022/07/14 04:13:53;;;;;;;31.38;17.75;;;14.30;99.90;;;;;;4996477;28;20029;-81
2022/07/14 04:16:19;;;;;;;27.55;16.85;;;14.30;99.90;;;;;;5012346;28;20095;-80
2022/07/14 04:18:44;;;;;;;25.02;16.15;;;14.30;99.90;;;;;;4997706;28;20120;-80
2022/07/14 04:21:10;;;;;;;25.27;16.55;;;14.30;99.90;;;;;;5002107;28;20128;-80
2022/07/14 04:23:37;;;;;;;28.65;17.13;;;14.30;99.90;;;;;;5005458;28;20057;-80
2022/07/14 04:26:03;;;;;;;28.80;16.55;;;14.40;99.90;;;;;;5006607;28;20463;-80
2022/07/14 04:28:29;;;;;;;24.63;15.32;;;14.40;99.90;;;;;;5005215;28;20033;-80
2022/07/14 04:30:55;;;;;;;24.42;16.33;;;14.40;99.90;;;;;;5006743;28;20390;-80
2022/07/14 04:33:21;;;;;;;21.30;14.70;;;14.40;99.90;;;;;;4999827;28;20095;-80
2022/07/14 04:35:48;;;;;;;30.85;16.83;;;14.40;99.90;;;;;;5009768;28;20029;-80
2022/07/14 04:38:14;;;;;;;26.35;15.80;;;14.40;99.90;;;;;;5011699;28;20397;-80
2022/07/14 04:40:47;;;;;;;23.98;15.05;;;14.40;99.90;;;;;;5011094;28;20080;-81
2022/07/14 04:43:12;;;;;;;26.77;14.82;;;14.50;99.90;;;;;;5012893;28;20409;-80
2022/07/14 04:45:38;;;;;;;24.27;14.80;;;14.50;99.90;;;;;;5019312;28;20606;-80
2022/07/14 04:48:04;;;;;;;23.33;16.70;;;14.60;99.90;;;;;;5019688;28;20029;-81
2022/07/14 04:53:14;;;;;;;23.80;14.82;;;14.50;99.90;;;;;;5020928;28;20107;-81
2022/07/14 04:55:40;;;;;;;22.25;15.27;;;14.50;99.90;;;;;;5026781;28;20154;-81
2022/07/14 04:58:05;;;;;;;21.17;14.13;;;14.50;99.90;;;;;;5020333;28;20034;-81
2022/07/14 05:00:31;;;;;;;22.10;14.10;;;14.50;99.90;;;;;;5019109;28;20135;-81
2022/07/14 05:02:57;;;;;;;24.83;13.48;;;14.60;99.90;;;;;;5027611;28;20030;-80
2022/07/14 05:05:22;;;;;;;25.70;13.93;;;14.60;99.90;;;;;;5017562;28;20049;-81
2022/07/14 05:07:48;;;;;;;26.95;15.77;;;14.60;99.90;;;;;;5016146;28;20029;-80
2022/07/14 05:10:14;;;;;;;23.92;15.60;;;14.70;99.90;;;;;;5024502;28;20049;-81
2022/07/14 05:12:40;;;;;;;24.80;15.05;;;14.80;99.90;;;;;;5034591;28;20424;-81
2022/07/14 05:15:06;;;;;;;25.13;13.55;;;14.90;99.90;;;;;;5010731;28;20032;-80
2022/07/14 05:17:32;;;;;;;25.83;13.70;;;14.90;99.90;;;;;;5019084;28;20112;-80
2022/07/14 05:19:57;;;;;;;21.20;14.13;;;15.00;99.90;;;;;;5036088;28;20313;-81
2022/07/14 05:22:24;;;;;;;25.13;15.55;;;15.00;99.90;;;;;;5028992;28;20024;-81
2022/07/14 05:24:50;;;;;;;23.02;16.08;;;15.10;99.90;;;;;;5016280;28;20508;-81
2022/07/14 05:27:16;;;;;;;22.15;14.25;;;15.10;99.90;;;;;;5011521;28;20129;-80
2022/07/14 05:29:42;;;;;;;28.15;15.52;;;15.20;99.90;;;;;;5015334;28;20038;-81
2022/07/14 05:32:08;;;;;;;25.92;13.57;;;15.30;99.90;;;;;;5018057;28;20044;-81
2022/07/14 05:34:41;;;;;;;21.55;13.63;;;15.30;99.90;;;;;;5013310;28;20136;-81
2022/07/14 05:37:07;;;;;;;19.73;13.77;;;15.40;99.90;;;;;;5011533;28;20072;-81
2022/07/14 05:39:32;;;;;;;21.55;13.40;;;15.50;99.90;;;;;;5010391;28;20057;-80
2022/07/14 05:41:58;;;;;;;20.35;12.23;;;15.60;99.90;;;;;;5018597;28;20046;-80
2022/07/14 05:44:24;;;;;;;22.27;12.82;;;15.60;99.90;;;;;;5017255;28;20033;-81
2022/07/14 05:46:50;;;;;;;19.35;12.73;;;15.70;99.90;;;;;;5017688;28;20033;-81
2022/07/14 05:49:15;;;;;;;22.52;12.05;;;15.70;99.90;;;;;;5017571;28;20481;-81
2022/07/14 05:51:42;;;;;;;18.15;11.52;;;15.80;99.90;;;;;;5013204;28;20115;-82
2022/07/14 05:54:08;;;;;;;22.38;11.00;;;16.00;99.90;;;;;;5017533;28;20187;-80
2022/07/14 05:56:34;;;;;;;18.40;10.85;;;16.00;99.90;;;;;;5019344;28;20497;-80
2022/07/14 05:58:59;;;;;;;19.83;10.85;;;16.10;99.90;;;;;;5017725;28;20029;-81
2022/07/14 06:01:25;;;;;;;16.75;9.70;;;16.20;99.90;;;;;;5016442;28;20040;-80
2022/07/14 06:03:56;;;;;;;21.50;9.38;;;16.40;99.90;;;;;;5011449;28;20033;-81
2022/07/14 06:06:22;;;;;;;20.42;9.13;;;16.50;99.90;;;;;;5025694;28;20152;-81
2022/07/14 06:08:49;;;;;;;21.95;9.23;;;16.60;99.90;;;;;;5021049;28;20104;-81
2022/07/14 06:11:16;;;;;;;18.95;8.48;;;16.80;99.90;;;;;;5021552;28;20507;-81
2022/07/14 06:13:42;;;;;;;17.20;8.27;;;16.90;99.90;;;;;;5018158;28;20476;-81
2022/07/14 06:16:08;;;;;;;13.88;7.50;;;17.00;99.90;;;;;;5013157;28;20041;-81
2022/07/14 06:18:34;;;;;;;16.55;7.47;;;17.20;99.90;;;;;;5019534;28;20302;-81
2022/07/14 06:21:00;;;;;;;15.27;7.68;;;17.30;99.90;;;;;;5014975;28;20444;-81
2022/07/14 06:23:26;;;;;;;11.57;7.70;;;17.40;99.90;;;;;;5011963;28;20020;-80
2022/07/14 06:25:51;;;;;;;19.05;7.60;;;17.40;99.90;;;;;;5017249;28;20137;-81
2022/07/14 06:28:17;;;;;;;15.52;7.50;;;17.50;99.90;;;;;;5020051;28;20036;-81
2022/07/14 06:30:43;;;;;;;16.90;8.55;;;17.60;99.90;;;;;;5016570;28;20512;-81
2022/07/14 06:33:09;;;;;;;17.50;7.80;;;17.70;99.90;;;;;;5024452;28;20550;-81
2022/07/14 06:35:40;;;;;;;20.45;7.32;;;17.80;99.90;;;;;;5014789;28;20131;-81
2022/07/14 06:38:06;;;;;;;23.13;8.40;;;17.90;99.90;;;;;;5021944;28;20345;-81
2022/07/14 06:40:32;;;;;;;28.17;8.80;;;18.00;99.90;;;;;;5018052;28;20566;-81
2022/07/14 06:42:58;;;;;;;18.95;7.53;;;18.10;99.90;;;;;;5020853;28;20105;-81
2022/07/14 06:45:24;;;;;;;19.83;7.80;;;18.30;99.90;;;;;;5016380;28;20033;-81
2022/07/14 06:47:50;;;;;;;13.57;6.82;;;18.40;99.90;;;;;;5025768;28;20373;-81
2022/07/14 06:50:15;;;;;;;17.95;7.82;;;18.60;99.90;;;;;;5012766;28;20088;-81
2022/07/14 06:52:41;;;;;;;17.02;7.60;;;18.90;99.90;;;;;;5013450;28;20433;-82
2022/07/14 06:55:08;;;;;;;38.40;20.27;;;19.00;99.90;;;;;;5023506;28;20029;-81
2022/07/14 06:57:34;;;;;;;18.13;8.23;;;19.00;99.90;;;;;;5017510;28;20041;-81
2022/07/14 07:00:00;;;;;;;17.67;7.72;;;19.00;99.90;;;;;;5011085;28;20415;-82
2022/07/14 07:02:25;;;;;;;13.10;6.78;;;19.00;99.90;;;;;;5011842;28;20057;-81
2022/07/14 07:07:36;;;;;;;14.77;6.93;;;19.10;99.90;;;;;;5014409;28;20575;-81
2022/07/14 07:10:03;;;;;;;15.25;9.15;;;19.20;99.90;;;;;;5009103;28;20030;-82
2022/07/14 07:12:29;;;;;;;18.95;6.85;;;19.30;99.90;;;;;;5008600;28;20025;-81
2022/07/14 07:14:55;;;;;;;13.63;7.55;;;19.40;99.90;;;;;;5010352;28;20515;-81
2022/07/14 07:17:21;;;;;;;18.52;6.45;;;19.50;99.90;;;;;;5016995;28;20040;-81
2022/07/14 07:19:47;;;;;;;9.98;6.45;;;19.90;99.90;;;;;;5015471;28;20097;-81
2022/07/14 07:22:13;;;;;;;11.95;6.93;;;20.10;99.90;;;;;;5007417;28;20098;-83
2022/07/14 07:24:39;;;;;;;18.27;6.28;;;20.60;99.90;;;;;;5011194;28;20186;-84
2022/07/14 07:27:05;;;;;;;10.75;5.22;;;21.10;99.90;;;;;;5005784;28;20601;-82
2022/07/14 07:29:31;;;;;;;14.90;7.00;;;21.40;99.90;;;;;;5008697;28;20480;-87
2022/07/14 07:31:56;;;;;;;9.45;5.75;;;21.70;99.90;;;;;;5009079;28;20021;-86
2022/07/14 07:34:22;;;;;;;12.52;6.00;;;21.80;99.90;;;;;;5007546;28;20046;-85
2022/07/14 07:36:49;;;;;;;16.25;5.07;;;22.30;99.90;;;;;;5014949;28;20033;-86
2022/07/14 07:39:15;;;;;;;10.45;5.05;;;22.40;99.90;;;;;;5015713;28;20213;-86
2022/07/14 07:41:41;;;;;;;19.42;6.05;;;22.90;99.90;;;;;;5012650;28;20511;-87
2022/07/14 07:44:07;;;;;;;12.68;5.32;;;23.40;99.90;;;;;;5015230;28;20026;-91
2022/07/14 07:46:32;;;;;;;13.23;5.40;;;23.40;99.90;;;;;;5020239;28;20030;-88
2022/07/14 07:48:58;;;;;;;13.32;5.25;;;24.30;99.90;;;;;;5019140;28;20029;-90
2022/07/14 07:51:24;;;;;;;9.88;4.30;;;27.80;99.90;;;;;;5021268;28;20445;-86
2022/07/14 07:53:50;;;;;;;9.93;3.75;;;31.30;88.70;;;;;;5012834;28;20030;-90
2022/07/14 07:56:15;;;;;;;6.15;3.95;;;33.80;62.60;;;;;;5022903;28;20056;-86
2022/07/14 07:58:41;;;;;;;9.95;4.03;;;35.50;53.60;;;;;;5013438;28;20489;-90
2022/07/14 08:01:08;;;;;;;6.95;4.03;;;36.30;47.30;;;;;;5012726;28;20045;-92
2022/07/14 08:03:33;;;;;;;9.65;3.33;;;36.10;46.60;;;;;;5021902;28;20176;-85
2022/07/14 08:05:59;;;;;;;10.35;4.00;;;37.70;45.50;;;;;;5020984;28;20151;-85
2022/07/14 08:08:24;;;;;;;10.10;4.25;;;36.80;43.00;;;;;;5017691;28;20375;-92
2022/07/14 08:10:50;;;;;;;11.73;4.72;;;35.30;44.00;;;;;;5003233;28;20841;-88
2022/07/14 08:13:16;;;;;;;10.27;4.43;;;34.20;46.30;;;;;;5012026;28;20031;-87
2022/07/14 08:15:42;;;;;;;9.40;4.75;;;31.80;52.50;;;;;;5016729;28;20087;-81
2022/07/14 08:18:07;;;;;;;9.23;4.07;;;30.50;60.10;;;;;;5009532;28;20034;-82
2022/07/14 08:20:34;;;;;;;9.45;4.10;;;29.90;67.40;;;;;;5008901;28;20053;-86
2022/07/14 08:23:00;;;;;;;12.73;4.63;;;29.30;68.10;;;;;;4655746;28;10000488;-87
2022/07/14 08:25:26;;;;;;;14.30;5.80;;;28.80;79.20;;;;;;5004321;28;20399;-83
2022/07/14 08:27:52;;;;;;;6.20;4.55;;;28.70;81.90;;;;;;5003516;28;20271;-83
2022/07/14 08:30:19;;;;;;;11.18;3.97;;;31.00;70.70;;;;;;5006717;28;20044;-82
2022/07/14 08:32:51;;;;;;;9.88;4.50;;;32.50;60.60;;;;;;5007877;28;20253;-83
2022/07/14 08:35:19;;;;;;;7.25;3.47;;;34.50;52.20;;;;;;5006043;28;20057;-84
2022/07/14 08:37:46;;;;;;;7.93;3.40;;;36.90;46.80;;;;;;5016869;28;20527;-83
2022/07/14 08:40:13;;;;;;;7.53;3.33;;;38.20;40.90;;;;;;5005328;28;20152;-83
2022/07/14 08:42:43;;;;;;;10.75;3.58;;;38.60;41.60;;;;;;5011243;28;20508;-78
2022/07/14 08:45:10;;;;;;;5.97;2.80;;;39.20;38.80;;;;;;5021500;28;20137;-83
2022/07/14 08:47:37;;;;;;;6.60;3.00;;;39.40;37.20;;;;;;5004885;28;20084;-82
2022/07/14 08:50:04;;;;;;;13.52;3.22;;;39.70;36.00;;;;;;5008120;28;20574;-82
2022/07/14 08:52:31;;;;;;;10.25;3.03;;;39.90;36.10;;;;;;5004465;28;20396;-84
2022/07/14 08:54:57;;;;;;;6.35;2.80;;;40.60;35.60;;;;;;5001860;28;20030;-84
2022/07/14 08:57:23;;;;;;;6.38;2.83;;;40.70;35.40;;;;;;4999700;28;20099;-86
2022/07/14 08:59:49;;;;;;;6.43;2.90;;;40.60;35.60;;;;;;5022179;28;20488;-85
2022/07/14 09:02:15;;;;;;;4.38;2.70;;;39.90;35.40;;;;;;5011850;28;20526;-86
2022/07/14 09:04:45;;;;;;;7.45;2.58;;;39.50;34.50;;;;;;5014837;28;20037;-84
2022/07/14 09:07:12;;;;;;;6.72;2.60;;;39.10;34.70;;;;;;5010260;28;20021;-80
2022/07/14 09:09:38;;;;;;;4.15;2.08;;;38.60;34.70;;;;;;5000854;28;20579;-85
2022/07/14 09:12:06;;;;;;;4.43;2.05;;;39.30;33.40;;;;;;5010677;28;20129;-86
2022/07/14 09:17:21;;;;;;;5.68;2.38;;;38.60;35.70;;;;;;5009418;28;20539;-84
2022/07/14 09:20:07;;;;;;;3.05;2.03;;;39.00;34.90;;;;;;5003932;28;20057;-86
2022/07/14 09:22:41;;;;;;;4.95;1.95;;;38.90;33.90;;;;;;4996814;28;20025;-83
2022/07/14 09:25:10;;;;;;;9.05;2.42;;;38.10;33.70;;;;;;5001578;28;20029;-82
2022/07/14 09:27:37;;;;;;;2.63;1.98;;;38.60;33.30;;;;;;5000806;28;20330;-85
2022/07/14 09:30:05;;;;;;;4.22;1.80;;;38.40;31.20;;;;;;5000257;28;20025;-83
2022/07/14 09:32:56;;;;;;;10.55;1.98;;;38.40;33.60;;;;;;5000846;28;20565;-84
2022/07/14 09:35:26;;;;;;;8.13;2.10;;;38.70;34.30;;;;;;4998609;28;20040;-84
2022/07/14 09:37:55;;;;;;;3.92;1.90;;;38.10;34.40;;;;;;5003034;28;20029;-88
2022/07/14 09:40:25;;;;;;;10.75;2.47;;;38.90;31.10;;;;;;4999168;28;20086;-85
2022/07/14 09:42:59;;;;;;;4.43;1.33;;;38.80;32.90;;;;;;5012434;28;20347;-82
2022/07/14 09:45:36;;;;;;;8.40;1.55;;;38.40;30.10;;;;;;5003751;28;20038;-84
2022/07/14 09:48:09;;;;;;;5.97;1.80;;;37.70;32.70;;;;;;5002410;28;20461;-83
2022/07/14 09:50:48;;;;;;;6.03;1.50;;;37.30;32.60;;;;;;5002025;28;20048;-85
2022/07/14 09:53:27;;;;;;;4.47;1.67;;;37.40;30.90;;;;;;5006859;28;20033;-83
2022/07/14 09:56:04;;;;;;;6.60;1.33;;;37.20;34.00;;;;;;5005623;28;20095;-83
2022/07/14 09:58:54;;;;;;;3.58;1.98;;;37.10;32.40;;;;;;5007948;28;20419;-83
2022/07/14 10:01:20;;;;;;;8.23;1.20;;;36.70;31.70;;;;;;5006484;28;20404;-83
2022/07/14 10:03:51;;;;;;;4.13;1.00;;;37.00;30.70;;;;;;5010274;28;20034;-83
2022/07/14 10:06:18;;;;;;;6.72;1.27;;;37.10;32.40;;;;;;5014919;28;20591;-83
2022/07/14 10:08:49;;;;;;;7.22;1.58;;;36.80;31.30;;;;;;5010513;28;20029;-83
2022/07/14 10:11:16;;;;;;;3.92;1.08;;;36.60;35.50;;;;;;5010307;28;20413;-84
2022/07/14 10:13:43;;;;;;;5.53;1.23;;;37.30;32.30;;;;;;4996296;28;20026;-83
2022/07/14 10:16:09;;;;;;;3.38;1.30;;;36.90;32.40;;;;;;5011157;28;20045;-83
2022/07/14 10:18:35;;;;;;;4.20;1.20;;;37.20;31.10;;;;;;4998698;28;20026;-83
2022/07/14 10:21:04;;;;;;;3.97;1.10;;;37.10;30.70;;;;;;5011067;28;20460;-83
2022/07/14 10:23:30;;;;;;;3.03;1.50;;;36.20;31.50;;;;;;5011350;28;20037;-83
2022/07/14 10:25:58;;;;;;;3.20;0.95;;;36.40;32.10;;;;;;4999422;28;20570;-83
2022/07/14 10:28:24;;;;;;;4.40;0.93;;;36.10;33.20;;;;;;5007240;28;20452;-83
2022/07/14 10:31:08;;;;;;;3.75;1.10;;;36.90;33.10;;;;;;5004293;28;20091;-83
2022/07/14 10:33:59;;;;;;;4.45;1.00;;;36.60;32.30;;;;;;5001555;28;20049;-83
2022/07/14 10:36:58;;;;;;;2.90;0.90;;;37.00;31.40;;;;;;5000346;28;20025;-83
2022/07/14 10:39:35;;;;;;;4.03;0.88;;;36.90;31.80;;;;;;4653880;28;10000305;-83
2022/07/14 10:42:27;;;;;;;7.13;1.17;;;36.00;33.40;;;;;;4999981;28;20469;-83
2022/07/14 10:44:53;;;;;;;3.75;0.90;;;35.60;31.60;;;;;;5006300;28;20125;-86
2022/07/14 10:47:20;;;;;;;4.20;1.10;;;36.50;33.90;;;;;;5015620;28;20457;-83
2022/07/14 10:50:09;;;;;;;5.95;1.10;;;35.90;31.50;;;;;;5011942;28;20355;-87
2022/07/14 10:52:37;;;;;;;5.57;1.00;;;36.20;32.40;;;;;;4995901;28;20599;-84
2022/07/14 10:55:16;;;;;;;3.38;0.85;;;36.40;32.30;;;;;;5008584;28;20203;-85
2022/07/14 10:58:17;;;;;;;3.78;0.95;;;36.70;32.50;;;;;;5014056;28;20025;-85
2022/07/14 11:00:47;;;;;;;3.03;0.98;;;36.10;30.70;;;;;;4999061;28;20052;-86
2022/07/14 11:03:39;;;;;;;6.13;1.20;;;35.60;32.60;;;;;;5011718;28;20445;-82
2022/07/14 11:06:11;;;;;;;5.68;1.10;;;35.80;31.40;;;;;;5005629;28;20033;-84
2022/07/14 11:08:40;;;;;;;3.88;1.20;;;35.00;32.00;;;;;;5001855;28;20022;-84
2022/07/14 11:11:17;;;;;;;4.80;1.10;;;35.00;32.30;;;;;;5009387;28;20033;-84
2022/07/14 11:14:00;;;;;;;4.47;0.93;;;34.70;35.10;;;;;;5007451;28;20026;-85
2022/07/14 11:16:45;;;;;;;4.00;1.08;;;34.70;32.50;;;;;;5006765;28;20025;-84
2022/07/14 11:19:21;;;;;;;7.65;1.30;;;34.70;30.20;;;;;;5007979;28;20033;-84
2022/07/14 11:22:19;;;;;;;2.78;0.90;;;34.50;32.30;;;;;;5026241;28;20021;-84
2022/07/14 11:24:53;;;;;;;2.90;1.00;;;34.30;33.00;;;;;;5003716;28;20112;-84
2022/07/14 11:27:36;;;;;;;2.63;1.00;;;34.80;32.10;;;;;;5006796;28;20083;-84
2022/07/14 11:30:17;;;;;;;2.83;0.95;;;34.90;29.60;;;;;;5010916;28;20223;-85
2022/07/14 11:32:43;;;;;;;1.67;0.90;;;34.90;33.60;;;;;;5012973;28;20519;-86
2022/07/14 11:38:00;;;;;;;2.78;0.80;;;34.20;34.20;;;;;;5009697;28;20325;-86
2022/07/14 11:40:49;;;;;;;3.30;1.00;;;33.40;32.00;;;;;;5002100;28;20612;-86
2022/07/14 11:43:30;;;;;;;4.57;1.15;;;32.40;37.60;;;;;;4998719;28;20037;-85
2022/07/14 11:46:22;;;;;;;;;;;32.20;39.10;;;;;;5016777;28;20048;-85
2022/07/14 11:48:51;;;;;;;2.30;1.20;;;32.10;38.20;;;;;;5011627;28;20148;-87
2022/07/14 11:51:22;;;;;;;4.25;1.00;;;32.20;39.80;;;;;;5012152;28;20152;-87
2022/07/14 11:53:55;;;;;;;3.85;1.23;;;32.30;37.00;;;;;;5011948;28;20188;-86
2022/07/14 11:56:25;;;;;;;2.03;1.10;;;32.10;39.60;;;;;;5017163;28;20021;-85
2022/07/14 11:58:53;;;;;;;2.75;1.15;;;31.30;38.30;;;;;;5015977;28;20318;-85
2022/07/14 12:01:18;;;;;;;2.53;1.30;;;30.50;38.50;;;;;;5005132;28;20592;-86
2022/07/14 12:03:46;;;;;;;2.55;0.68;;;30.10;44.20;;;;;;5010799;28;20235;-84
2022/07/14 12:06:11;;;;;;;4.35;1.20;;;30.40;44.50;;;;;;5001398;28;20064;-84
2022/07/14 12:08:37;;;;;;;3.83;1.30;;;31.00;36.60;;;;;;4655694;28;9999969;-83
2022/07/14 12:11:21;;;;;;;2.95;0.90;;;31.00;40.10;;;;;;5011718;28;21386;-84
2022/07/14 12:13:49;;;;;;;3.13;1.13;;;31.10;40.00;;;;;;5004620;28;20143;-84
2022/07/14 12:16:15;;;;;;;2.25;1.10;;;31.40;42.10;;;;;;5007580;28;20029;-85
2022/07/14 12:18:41;;;;;;;3.45;1.00;;;31.40;38.40;;;;;;5007493;28;20040;-84
2022/07/14 12:21:06;;;;;;;2.05;0.75;;;31.10;35.90;;;;;;5015066;28;20564;-83
2022/07/14 12:23:32;;;;;;;3.72;1.00;;;31.00;37.30;;;;;;5008554;28;20026;-84
2022/07/14 12:26:01;;;;;;;2.63;0.80;;;30.90;41.60;;;;;;5002870;28;20099;-84
2022/07/14 12:28:27;;;;;;;5.07;1.17;;;30.90;37.70;;;;;;5004277;28;20026;-84
2022/07/14 12:30:55;;;;;;;2.92;0.80;;;30.90;36.90;;;;;;5014241;28;20442;-84
2022/07/14 12:33:26;;;;;;;1.80;0.68;;;30.80;35.70;;;;;;5016134;28;20052;-84
2022/07/14 12:35:58;;;;;;;3.13;0.90;;;30.60;37.30;;;;;;4998597;28;20560;-83
2022/07/14 12:38:25;;;;;;;3.83;1.00;;;30.60;37.80;;;;;;5016890;28;20404;-84
2022/07/14 12:41:00;;;;;;;2.20;0.73;;;30.40;37.70;;;;;;5014938;28;20029;-84
2022/07/14 12:43:30;;;;;;;4.15;1.00;;;30.40;41.10;;;;;;5032506;28;20040;-84
2022/07/14 12:46:02;;;;;;;5.57;0.95;;;30.10;35.10;;;;;;4997488;28;20038;-83
2022/07/14 12:48:36;;;;;;;4.40;1.30;;;30.30;39.20;;;;;;4997624;28;20512;-83
2022/07/14 12:51:24;;;;;;;2.67;0.90;;;30.40;39.60;;;;;;5027321;28;20301;-83
2022/07/14 12:54:07;;;;;;;3.65;0.80;;;30.60;37.00;;;;;;5001991;28;20415;-83
2022/07/14 12:56:45;;;;;;;6.45;1.38;;;30.50;38.80;;;;;;4998031;28;20037;-83